Time;durP1;ratioP1;P1;durP2;ratioP2;P2;SDS_P1;SDS_P2;PMS_P1;PMS_P2;Temp;Humidity;BMP_temperature;BMP_pressure;BME280_temperature;BME280_humidity;BME280_pressure;Samples;Min_cycle;Max_cycle;Signal;HPM_P1;HPM_P2
2023/09/05 00:01:09;;;;;;;24.00;17.10;;;;;;;16.93;100.00;101874.81;5062177;28;20029;-68
2023/09/05 00:03:35;;;;;;;20.48;14.70;;;;;;;16.87;100.00;101873.31;5051976;28;20032;-68
2023/09/05 00:06:04;;;;;;;21.80;15.15;;;;;;;16.83;100.00;101873.13;5054678;28;20039;-69
2023/09/05 00:08:30;;;;;;;22.00;15.68;;;;;;;16.83;100.00;101875.94;5054559;28;20445;-69
2023/09/05 00:10:59;;;;;;;20.63;14.38;;;;;;;16.79;100.00;101874.09;5062158;28;20055;-69
2023/09/05 00:13:26;;;;;;;20.10;14.63;;;;;;;16.79;100.00;101880.50;5074981;28;20047;-69
2023/09/05 00:15:52;;;;;;;21.58;15.40;;;;;;;16.78;100.00;101875.25;5060850;28;20032;-70
2023/09/05 00:18:17;;;;;;;21.48;15.23;;;;;;;16.74;100.00;101880.66;5068847;28;20501;-70
2023/09/05 00:20:42;;;;;;;21.33;15.10;;;;;;;16.70;100.00;101876.84;5074659;28;20035;-70
2023/09/05 00:23:08;;;;;;;20.75;15.10;;;;;;;16.67;100.00;101875.53;5074479;28;20438;-71
2023/09/05 00:25:34;;;;;;;20.95;15.23;;;;;;;16.62;100.00;101872.91;5070118;28;20037;-71
2023/09/05 00:28:03;;;;;;;21.45;14.82;;;;;;;16.56;100.00;101876.16;5054402;28;20037;-70
2023/09/05 00:30:28;;;;;;;21.73;15.00;;;;;;;16.46;100.00;101874.47;5054449;28;20060;-71
2023/09/05 00:32:54;;;;;;;20.23;15.40;;;;;;;16.38;100.00;101874.09;5054164;28;20031;-71
2023/09/05 00:35:19;;;;;;;20.33;14.85;;;;;;;16.33;100.00;101888.22;5054246;28;20082;-69
2023/09/05 00:37:45;;;;;;;21.38;15.40;;;;;;;16.23;100.00;101877.31;5070453;28;20574;-70
2023/09/05 00:40:11;;;;;;;20.67;15.23;;;;;;;16.16;100.00;101886.13;5073832;28;20422;-69
2023/09/05 00:42:36;;;;;;;21.65;16.15;;;;;;;16.11;100.00;101886.25;5057018;28;20033;-69
2023/09/05 00:45:03;;;;;;;22.85;15.85;;;;;;;16.06;100.00;101883.59;5058754;28;20063;-69
2023/09/05 00:47:30;;;;;;;22.90;16.42;;;;;;;16.02;100.00;101882.56;5064733;28;20077;-69
2023/09/05 00:49:56;;;;;;;23.17;15.73;;;;;;;16.02;100.00;101894.59;5054206;28;20024;-69
2023/09/05 00:52:24;;;;;;;24.33;16.60;;;;;;;16.00;100.00;101890.47;5057049;28;20036;-68
2023/09/05 00:54:51;;;;;;;23.27;15.93;;;;;;;16.00;100.00;101890.47;5073840;28;20471;-69
2023/09/05 00:57:19;;;;;;;23.30;15.90;;;;;;;15.97;100.00;101882.72;5069006;28;20033;-69
2023/09/05 00:59:45;;;;;;;20.90;14.95;;;;;;;15.98;100.00;101887.16;5067671;28;20187;-69
2023/09/05 01:02:10;;;;;;;21.05;15.45;;;;;;;15.96;100.00;101898.66;5059754;28;20108;-70
2023/09/05 01:04:36;;;;;;;20.42;14.85;;;;;;;15.96;100.00;101889.44;5059533;28;20051;-69
2023/09/05 01:07:04;;;;;;;21.48;14.80;;;;;;;15.93;100.00;101892.84;5073596;28;20135;-69
2023/09/05 01:09:41;;;;;;;20.05;14.60;;;;;;;15.90;100.00;101888.75;5073539;28;20027;-69
2023/09/05 01:12:07;;;;;;;21.33;15.00;;;;;;;15.90;100.00;101888.75;5073624;28;20036;-69
2023/09/05 01:14:33;;;;;;;22.05;15.70;;;;;;;15.87;100.00;101878.25;5056095;28;20033;-69
2023/09/05 01:17:01;;;;;;;20.25;14.45;;;;;;;15.82;100.00;101878.31;5053381;28;20325;-69
2023/09/05 01:19:28;;;;;;;21.80;14.95;;;;;;;15.81;100.00;101880.28;5053810;28;20036;-69
2023/09/05 01:22:01;;;;;;;20.23;14.55;;;;;;;15.82;100.00;101883.91;5055592;28;20465;-69
2023/09/05 01:24:26;;;;;;;20.60;14.97;;;;;;;15.77;100.00;101882.06;5063565;28;20033;-69
2023/09/05 01:26:53;;;;;;;19.92;14.27;;;;;;;15.78;100.00;101885.66;5064839;28;20739;-70
2023/09/05 01:29:25;;;;;;;20.48;14.05;;;;;;;15.74;100.00;101877.94;5058089;28;20448;-69
2023/09/05 01:31:52;;;;;;;19.93;14.33;;;;;;;15.70;100.00;101879.69;5071031;28;20059;-69
2023/09/05 01:34:20;;;;;;;21.23;14.30;;;;;;;15.70;100.00;101876.91;5071298;28;20387;-68
2023/09/05 01:36:45;;;;;;;20.15;14.88;;;;;;;15.67;100.00;101873.94;5053114;28;20029;-68
2023/09/05 01:39:10;;;;;;;19.95;14.20;;;;;;;15.68;100.00;101878.38;5053098;28;20142;-68
2023/09/05 01:41:36;;;;;;;20.33;14.70;;;;;;;15.66;100.00;101873.13;5052854;28;20051;-68
2023/09/05 01:44:01;;;;;;;20.65;14.43;;;;;;;15.64;100.00;101875.41;5052963;28;20388;-69
2023/09/05 01:46:26;;;;;;;20.40;14.50;;;;;;;15.63;100.00;101878.50;5052890;28;20047;-69
2023/09/05 01:48:52;;;;;;;21.33;14.80;;;;;;;15.58;100.00;101871.91;5052739;28;20417;-69
2023/09/05 01:51:17;;;;;;;19.80;14.40;;;;;;;15.60;100.00;101866.00;5052738;28;20371;-69
2023/09/05 01:53:42;;;;;;;19.90;14.07;;;;;;;15.61;100.00;101873.22;5052812;28;20043;-68
2023/09/05 01:56:08;;;;;;;20.55;13.65;;;;;;;15.56;100.00;101874.19;5052761;28;20029;-68
2023/09/05 01:58:33;;;;;;;20.08;14.50;;;;;;;15.57;100.00;101881.41;5052653;28;20025;-69
2023/09/05 02:01:03;;;;;;;19.55;14.27;;;;;;;15.55;100.00;101880.06;5060619;28;20432;-70
2023/09/05 02:03:29;;;;;;;19.85;13.75;;;;;;;15.53;100.00;101885.97;5057590;28;20071;-69
2023/09/05 02:05:54;;;;;;;20.30;14.02;;;;;;;15.52;100.00;101877.91;5072718;28;20082;-69
2023/09/05 02:08:20;;;;;;;20.45;14.38;;;;;;;15.48;100.00;101874.94;5072516;28;20533;-69
2023/09/05 02:10:45;;;;;;;20.05;14.07;;;;;;;15.47;100.00;101880.81;5072287;28;20431;-69
2023/09/05 02:13:12;;;;;;;20.80;14.75;;;;;;;15.48;100.00;101879.69;5072149;28;20041;-69
2023/09/05 02:15:38;;;;;;;21.10;14.70;;;;;;;15.47;100.00;101869.69;5072483;28;20078;-68
2023/09/05 02:18:06;;;;;;;21.23;14.63;;;;;;;15.43;100.00;101887.03;5072234;28;20021;-69
2023/09/05 02:20:32;;;;;;;19.48;14.65;;;;;;;15.39;100.00;101886.03;5072154;28;20384;-68
2023/09/05 02:22:57;;;;;;;20.30;14.65;;;;;;;15.37;100.00;101874.34;5072287;28;20031;-68
2023/09/05 02:25:23;;;;;;;20.52;13.93;;;;;;;15.34;100.00;101883.34;5072135;28;20380;-67
2023/09/05 02:27:48;;;;;;;20.92;13.98;;;;;;;15.33;100.00;101884.47;5072124;28;20078;-69
2023/09/05 02:30:13;;;;;;;22.25;14.55;;;;;;;15.32;100.00;101882.00;5066104;28;20496;-69
2023/09/05 02:32:38;;;;;;;19.85;14.50;;;;;;;15.31;100.00;101886.72;5057808;28;20496;-69
2023/09/05 02:35:05;;;;;;;20.85;14.63;;;;;;;15.31;100.00;101883.94;5061078;28;20429;-69
2023/09/05 02:37:31;;;;;;;20.20;14.38;;;;;;;15.28;100.00;101879.84;5060862;28;20036;-68
2023/09/05 02:39:56;;;;;;;21.13;15.20;;;;;;;15.31;100.00;101880.34;5071842;28;20036;-69
2023/09/05 02:42:21;;;;;;;20.42;14.88;;;;;;;15.29;100.00;101872.31;5071827;28;20096;-69
2023/09/05 02:44:51;;;;;;;20.55;13.95;;;;;;;15.28;100.00;101871.47;5071927;28;20028;-68
2023/09/05 02:47:16;;;;;;;19.67;15.02;;;;;;;15.30;100.00;101865.59;5071798;28;20050;-69
2023/09/05 02:49:41;;;;;;;21.67;14.60;;;;;;;15.31;100.00;101863.63;5071765;28;20024;-68
2023/09/05 02:52:06;;;;;;;21.40;15.13;;;;;;;15.32;100.00;101865.28;5071571;28;20108;-69
2023/09/05 02:54:32;;;;;;;21.30;14.63;;;;;;;15.32;100.00;101862.50;5071692;28;20024;-69
2023/09/05 02:56:57;;;;;;;22.10;14.88;;;;;;;15.33;100.00;101866.94;5071788;28;20024;-69
2023/09/05 02:59:22;;;;;;;21.60;15.13;;;;;;;15.32;100.00;101866.09;5070067;28;20179;-69
2023/09/05 03:01:48;;;;;;;19.83;13.98;;;;;;;15.34;100.00;101871.38;5062611;28;20025;-68
2023/09/05 03:04:17;;;;;;;20.02;13.90;;;;;;;15.33;100.00;101859.38;5052372;28;20535;-69
2023/09/05 03:06:42;;;;;;;20.05;14.10;;;;;;;15.32;100.00;101854.94;5071455;28;20037;-69
2023/09/05 03:09:07;;;;;;;19.70;14.18;;;;;;;15.36;100.00;101850.38;5071425;28;20028;-69
2023/09/05 03:11:33;;;;;;;19.63;14.68;;;;;;;15.36;100.00;101846.75;5057849;28;20501;-69
2023/09/05 03:13:58;;;;;;;21.27;14.70;;;;;;;15.36;100.00;101842.03;5051317;28;20421;-69
2023/09/05 03:16:24;;;;;;;20.65;14.13;;;;;;;15.38;100.00;101848.13;5051319;28;20524;-69
2023/09/05 03:18:50;;;;;;;20.77;14.75;;;;;;;15.38;100.00;101842.53;5049803;28;20041;-69
2023/09/05 03:21:15;;;;;;;20.42;14.50;;;;;;;15.41;100.00;101847.47;5051106;28;20162;-69
2023/09/05 03:23:41;;;;;;;19.60;14.43;;;;;;;15.38;100.00;101845.34;5058686;28;20111;-69
2023/09/05 03:26:06;;;;;;;20.55;14.60;;;;;;;15.38;100.00;101844.50;5057299;28;20114;-69
2023/09/05 03:28:59;;;;;;;19.67;14.00;;;;;;;15.38;100.00;101847.28;5051462;28;20029;-69
2023/09/05 03:31:27;;;;;;;21.23;15.40;;;;;;;15.37;100.00;101846.47;5067886;28;20044;-68
2023/09/05 03:33:54;;;;;;;19.38;14.40;;;;;;;15.35;100.00;101848.75;5051252;28;20104;-69
2023/09/05 03:36:19;;;;;;;20.48;14.45;;;;;;;15.35;100.00;101845.16;5051135;28;20056;-69
2023/09/05 03:38:44;;;;;;;20.08;14.68;;;;;;;15.31;100.00;101838.53;5050769;28;20025;-68
2023/09/05 03:41:10;;;;;;;19.77;14.05;;;;;;;15.33;100.00;101839.06;5051256;28;20028;-68
2023/09/05 03:43:35;;;;;;;20.00;14.43;;;;;;;15.32;100.00;101838.22;5050960;28;20028;-69
2023/09/05 03:46:00;;;;;;;20.70;14.65;;;;;;;15.30;100.00;101840.50;5051073;28;20039;-68
2023/09/05 03:48:26;;;;;;;20.42;14.30;;;;;;;15.27;100.00;101838.34;5050905;28;20033;-69
2023/09/05 03:50:51;;;;;;;20.83;14.45;;;;;;;15.30;100.00;101854.44;5049898;28;20028;-69
2023/09/05 03:53:16;;;;;;;18.35;13.60;;;;;;;15.27;100.00;101843.91;5050489;28;20124;-68
2023/09/05 03:55:42;;;;;;;22.10;14.02;;;;;;;15.29;100.00;101847.22;5050807;28;20068;-69
2023/09/05 03:58:08;;;;;;;21.98;14.50;;;;;;;15.26;100.00;101831.94;5050962;28;20463;-69
2023/09/05 04:00:34;;;;;;;20.17;13.98;;;;;;;15.26;100.00;101836.69;5050739;28;20037;-69
2023/09/05 04:03:02;;;;;;;20.70;14.38;;;;;;;15.26;100.00;101845.06;5056070;28;20429;-69
2023/09/05 04:05:28;;;;;;;20.10;14.02;;;;;;;15.23;100.00;101834.53;5061001;28;20029;-69
2023/09/05 04:07:54;;;;;;;19.77;14.48;;;;;;;15.22;100.00;101830.06;5049366;28;20037;-68
2023/09/05 04:10:21;;;;;;;20.73;14.77;;;;;;;15.21;100.00;101834.84;5059628;28;20025;-69
2023/09/05 04:12:46;;;;;;;19.33;14.30;;;;;;;15.20;100.00;101829.59;5070294;28;20090;-69
2023/09/05 04:15:11;;;;;;;20.80;15.13;;;;;;;15.18;100.00;101832.66;5070533;28;20464;-69
2023/09/05 04:17:37;;;;;;;20.67;14.77;;;;;;;15.15;100.00;101819.38;5070604;28;20017;-69
2023/09/05 04:20:06;;;;;;;20.17;14.93;;;;;;;15.13;100.00;101822.47;5070618;28;20029;-68
2023/09/05 04:22:32;;;;;;;19.85;14.80;;;;;;;15.11;100.00;101813.59;5070619;28;20043;-68
2023/09/05 04:24:57;;;;;;;19.75;14.93;;;;;;;15.09;100.00;101815.88;5070460;28;20037;-68
2023/09/05 04:27:23;;;;;;;20.30;14.88;;;;;;;15.08;100.00;101822.59;5065007;28;20029;-68
2023/09/05 04:29:54;;;;;;;20.33;14.45;;;;;;;15.09;100.00;101831.75;5051910;28;20056;-68
2023/09/05 04:32:31;;;;;;;21.58;14.95;;;;;;;15.04;100.00;101827.13;5065629;28;20025;-68
2023/09/05 04:34:58;;;;;;;20.20;15.35;;;;;;;15.03;100.00;101825.47;5049222;28;20120;-68
2023/09/05 04:37:24;;;;;;;21.40;15.02;;;;;;;15.02;100.00;101823.00;5050242;28;20091;-69
2023/09/05 04:39:50;;;;;;;20.83;14.90;;;;;;;15.00;100.00;101820.56;5050463;28;20033;-69
2023/09/05 04:42:15;;;;;;;20.63;15.48;;;;;;;14.99;100.00;101816.13;5062779;28;20028;-68
2023/09/05 04:44:40;;;;;;;20.73;15.07;;;;;;;14.98;100.00;101820.84;5070564;28;20025;-69
2023/09/05 04:47:20;;;;;;;21.10;14.68;;;;;;;14.96;100.00;101825.09;5063436;28;20067;-68
2023/09/05 04:49:46;;;;;;;20.75;14.75;;;;;;;14.94;100.00;101827.34;5050777;28;20018;-67
2023/09/05 04:52:11;;;;;;;21.40;15.48;;;;;;;14.91;100.00;101828.00;5053963;28;20021;-68
2023/09/05 04:54:37;;;;;;;21.30;15.18;;;;;;;14.89;100.00;101825.50;5052386;28;20021;-68
2023/09/05 04:57:03;;;;;;;20.52;15.10;;;;;;;14.90;100.00;101818.78;5060691;28;20344;-68
2023/09/05 04:59:28;;;;;;;20.80;15.15;;;;;;;14.91;100.00;101812.09;5073756;28;20383;-69
2023/09/05 05:01:53;;;;;;;20.40;14.98;;;;;;;14.93;100.00;101811.78;5074139;28;20024;-68
2023/09/05 05:04:22;;;;;;;20.70;15.38;;;;;;;14.99;100.00;101816.13;5073921;28;20477;-68
2023/09/05 05:06:47;;;;;;;20.40;15.38;;;;;;;14.97;100.00;101816.41;5070494;28;20056;-68
2023/09/05 05:09:12;;;;;;;19.50;14.30;;;;;;;14.99;100.00;101816.13;5065271;28;20106;-69
2023/09/05 05:11:38;;;;;;;20.13;13.90;;;;;;;15.00;100.00;101825.28;5053769;28;20033;-68
2023/09/05 05:14:03;;;;;;;19.98;14.30;;;;;;;15.03;100.00;101821.88;5053685;28;20159;-68
2023/09/05 05:16:28;;;;;;;19.80;14.38;;;;;;;15.03;100.00;101814.34;5053363;28;20032;-69
2023/09/05 05:18:54;;;;;;;20.65;14.15;;;;;;;15.02;100.00;101818.25;5069063;28;20426;-67
2023/09/05 05:21:19;;;;;;;20.55;13.55;;;;;;;15.02;100.00;101817.44;5073380;28;20039;-68
2023/09/05 05:23:44;;;;;;;18.58;13.50;;;;;;;15.04;100.00;101820.75;5063035;28;20025;-68
2023/09/05 05:26:10;;;;;;;20.60;13.77;;;;;;;15.07;100.00;101831.25;5053260;28;20143;-68
2023/09/05 05:28:35;;;;;;;19.75;13.68;;;;;;;15.06;100.00;101826.84;5069323;28;20118;-68
2023/09/05 05:31:00;;;;;;;20.20;13.10;;;;;;;15.08;100.00;101833.75;5071268;28;20056;-68
2023/09/05 05:33:26;;;;;;;19.67;13.40;;;;;;;15.13;100.00;101821.66;5053207;28;20229;-68
2023/09/05 05:35:53;;;;;;;20.55;13.77;;;;;;;15.16;100.00;101818.22;5053102;28;20057;-68
2023/09/05 05:38:19;;;;;;;20.23;14.20;;;;;;;15.19;100.00;101820.38;5070530;28;20029;-69
2023/09/05 05:40:44;;;;;;;20.10;13.63;;;;;;;15.23;100.00;101823.38;5071557;28;20126;-70
2023/09/05 05:43:09;;;;;;;20.52;13.93;;;;;;;15.26;100.00;101828.31;5072995;28;20028;-71
2023/09/05 05:45:35;;;;;;;20.92;13.65;;;;;;;15.31;100.00;101830.16;5072903;28;20101;-70
2023/09/05 05:48:00;;;;;;;21.65;13.40;;;;;;;15.36;100.00;101830.88;5073003;28;20074;-70
2023/09/05 05:50:25;;;;;;;19.42;13.63;;;;;;;15.39;100.00;101832.22;5072666;28;20372;-71
2023/09/05 05:52:50;;;;;;;20.40;13.70;;;;;;;15.44;100.00;101832.91;5071167;28;20039;-70
2023/09/05 05:55:16;;;;;;;20.88;14.75;;;;;;;15.48;100.00;101835.06;5059139;28;20024;-71
2023/09/05 05:57:42;;;;;;;21.27;14.13;;;;;;;15.49;100.00;101829.19;5072707;28;20064;-70
2023/09/05 06:00:08;;;;;;;21.38;14.02;;;;;;;15.56;100.00;101834.31;5058754;28;20035;-70
2023/09/05 06:02:33;;;;;;;21.30;15.00;;;;;;;15.61;100.00;101839.75;5058879;28;20442;-70
2023/09/05 06:04:59;;;;;;;20.52;14.82;;;;;;;15.66;100.00;101836.03;5052677;28;20032;-70
2023/09/05 06:07:25;;;;;;;19.38;13.63;;;;;;;15.75;100.00;101837.75;5052460;28;20538;-70
2023/09/05 06:09:50;;;;;;;19.98;13.80;;;;;;;15.77;100.00;101833.81;5052520;28;20353;-70
2023/09/05 06:12:15;;;;;;;20.05;13.73;;;;;;;15.82;100.00;101834.50;5052048;28;20457;-71
2023/09/05 06:14:41;;;;;;;19.38;13.13;;;;;;;15.89;100.00;101834.91;5052198;28;20361;-70
2023/09/05 06:17:06;;;;;;;20.02;13.45;;;;;;;16.01;100.00;101836.31;5051906;28;20348;-68
2023/09/05 06:19:31;;;;;;;21.08;13.95;;;;;;;16.05;100.00;101845.66;5052090;28;20072;-70
2023/09/05 06:21:58;;;;;;;23.80;14.27;;;;;;;16.12;100.00;101836.84;5051831;28;20033;-71
2023/09/05 06:24:24;;;;;;;20.15;13.55;;;;;;;16.18;100.00;101835.56;5051513;28;20040;-70
2023/09/05 06:26:49;;;;;;;19.95;13.10;;;;;;;16.24;100.00;101834.28;5052113;28;20025;-71
2023/09/05 06:29:15;;;;;;;19.90;13.52;;;;;;;16.27;100.00;101832.81;5051609;28;20037;-70
2023/09/05 06:31:40;;;;;;;20.88;13.13;;;;;;;16.33;100.00;101837.13;5050639;28;20017;-70
2023/09/05 06:34:05;;;;;;;20.58;13.48;;;;;;;16.32;100.00;101827.94;5051014;28;20029;-71
2023/09/05 06:36:30;;;;;;;19.15;12.63;;;;;;;16.44;100.00;101838.47;5066442;28;20524;-71
2023/09/05 06:38:57;;;;;;;19.02;12.52;;;;;;;16.50;100.00;101839.97;5062365;28;20134;-70
2023/09/05 06:41:22;;;;;;;20.48;13.85;;;;;;;16.58;100.00;101838.38;5072465;28;20538;-70
2023/09/05 06:43:48;;;;;;;20.63;13.85;;;;;;;16.66;100.00;101834.78;5058527;28;20139;-70
2023/09/05 06:46:13;;;;;;;19.75;13.20;;;;;;;16.74;100.00;101835.97;5061062;28;20523;-70
2023/09/05 06:48:39;;;;;;;19.70;12.88;;;;;;;16.82;100.00;101835.16;5060456;28;20113;-69
2023/09/05 06:51:05;;;;;;;19.20;12.80;;;;;;;16.87;100.00;101828.59;5059682;28;20407;-70
2023/09/05 06:53:31;;;;;;;21.67;13.32;;;;;;;17.00;99.47;101833.22;5061627;28;20028;-71
2023/09/05 06:55:56;;;;;;;19.70;12.98;;;;;;;17.09;98.37;101827.66;5063362;28;20420;-70
2023/09/05 06:58:23;;;;;;;20.00;12.88;;;;;;;17.19;98.28;101825.72;5062289;28;20112;-70
2023/09/05 07:00:53;;;;;;;19.67;12.50;;;;;;;17.23;98.84;101821.94;5061354;28;20028;-72
2023/09/05 07:03:22;;;;;;;19.92;12.30;;;;;;;17.35;96.59;101821.25;5063532;28;20107;-71
2023/09/05 07:05:48;;;;;;;19.48;13.10;;;;;;;17.44;96.71;101821.28;5062785;28;20052;-69
2023/09/05 07:08:13;;;;;;;18.50;12.38;;;;;;;17.54;95.97;101812.56;5065400;28;20056;-70
2023/09/05 07:10:38;;;;;;;18.70;12.55;;;;;;;17.60;95.83;101818.81;5065989;28;20086;-69
2023/09/05 07:13:04;;;;;;;19.13;12.13;;;;;;;17.68;95.22;101814.34;5062073;28;20041;-69
2023/09/05 07:15:29;;;;;;;20.17;12.40;;;;;;;17.75;94.68;101801.50;5057383;28;20119;-70
2023/09/05 07:17:55;;;;;;;19.80;12.30;;;;;;;17.85;94.56;101802.28;5064537;28;20112;-70
2023/09/05 07:20:21;;;;;;;18.55;12.07;;;;;;;17.94;94.21;101803.09;5063626;28;20017;-69
2023/09/05 07:22:46;;;;;;;19.92;12.63;;;;;;;18.03;92.88;101805.91;5061319;28;20092;-71
2023/09/05 07:25:12;;;;;;;18.98;12.60;;;;;;;18.09;93.19;101807.38;5065234;28;20027;-70
2023/09/05 07:27:37;;;;;;;20.08;11.80;;;;;;;18.16;92.74;101801.25;5063211;28;20557;-70
2023/09/05 07:30:03;;;;;;;19.25;12.10;;;;;;;18.27;91.55;101802.53;5072625;28;20100;-72
2023/09/05 07:32:28;;;;;;;18.90;12.00;;;;;;;18.36;90.89;101800.50;5058625;28;20029;-71
2023/09/05 07:34:55;;;;;;;17.75;12.20;;;;;;;18.44;90.69;101803.59;5056121;28;20065;-70
2023/09/05 07:37:20;;;;;;;18.55;11.80;;;;;;;18.48;90.85;101802.59;5059900;28;20059;-71
2023/09/05 07:39:50;;;;;;;18.17;11.93;;;;;;;18.58;89.43;101801.38;5069491;28;20033;-70
2023/09/05 07:42:16;;;;;;;18.73;11.90;;;;;;;18.68;90.42;101811.41;5065035;28;20020;-71
2023/09/05 07:44:41;;;;;;;18.52;11.85;;;;;;;18.79;89.73;101804.25;5062903;28;20384;-69
2023/09/05 07:47:07;;;;;;;18.20;11.93;;;;;;;18.84;90.63;101808.84;5071991;28;20032;-71
2023/09/05 07:49:40;;;;;;;18.23;11.80;;;;;;;18.94;89.10;101807.63;5064947;28;20032;-70
2023/09/05 07:52:06;;;;;;;17.83;11.98;;;;;;;19.04;89.44;101795.19;5068789;28;20028;-69
2023/09/05 07:54:32;;;;;;;19.08;12.07;;;;;;;19.15;88.92;101790.81;5067475;28;20039;-69
2023/09/05 07:56:57;;;;;;;19.65;12.02;;;;;;;19.24;87.39;101796.34;5061048;28;20086;-69
2023/09/05 07:59:23;;;;;;;18.85;11.45;;;;;;;19.30;88.04;101794.97;5068888;28;20570;-69
2023/09/05 08:01:49;;;;;;;19.63;11.90;;;;;;;19.42;86.74;101794.22;5057084;28;20072;-69
2023/09/05 08:04:14;;;;;;;18.30;11.80;;;;;;;19.53;87.42;101795.44;5051047;28;20068;-68
2023/09/05 08:06:40;;;;;;;17.75;12.20;;;;;;;19.63;87.67;101802.63;5051559;28;20041;-69
2023/09/05 08:09:05;;;;;;;18.25;12.00;;;;;;;19.74;85.74;101805.81;5054275;28;20396;-69
2023/09/05 08:11:30;;;;;;;17.88;11.73;;;;;;;19.83;85.76;101812.16;5053814;28;20028;-69
2023/09/05 08:13:56;;;;;;;19.88;12.68;;;;;;;19.90;84.51;101814.41;5057533;28;20028;-69
2023/09/05 08:16:21;;;;;;;19.75;12.27;;;;;;;19.98;84.07;101807.09;5064211;28;20757;-69
2023/09/05 08:18:46;;;;;;;18.98;11.38;;;;;;;20.09;83.55;101809.09;5060164;28;20036;-70
2023/09/05 08:21:12;;;;;;;18.27;11.57;;;;;;;20.19;82.98;101807.81;5052647;28;20057;-70
2023/09/05 08:23:37;;;;;;;17.90;11.57;;;;;;;20.30;83.06;101807.34;5057219;28;20040;-69
2023/09/05 08:26:02;;;;;;;16.90;11.30;;;;;;;20.40;82.35;101804.88;5072606;28;20033;-70
2023/09/05 08:28:32;;;;;;;16.55;11.18;;;;;;;20.47;83.87;101807.13;5058020;28;20029;-69
2023/09/05 08:31:00;;;;;;;16.95;10.95;;;;;;;20.64;80.66;101808.06;5063863;28;20086;-69
2023/09/05 08:33:28;;;;;;;17.55;11.70;;;;;;;20.73;80.40;101803.97;5057849;28;20036;-70
2023/09/05 08:35:53;;;;;;;17.02;11.13;;;;;;;20.81;81.36;101807.84;5067291;28;20107;-69
2023/09/05 08:38:19;;;;;;;17.40;11.27;;;;;;;20.91;79.65;101806.53;5064439;28;20116;-69
2023/09/05 08:40:45;;;;;;;16.88;11.00;;;;;;;20.99;80.25;101801.97;5055900;28;20040;-69
2023/09/05 08:43:11;;;;;;;19.45;11.45;;;;;;;21.10;79.85;101797.47;5057795;28;20025;-67
2023/09/05 08:45:36;;;;;;;17.52;11.68;;;;;;;21.25;80.21;101800.72;5062425;28;20024;-67
2023/09/05 08:48:03;;;;;;;17.67;11.18;;;;;;;21.34;79.83;101804.19;5062565;28;20096;-67
2023/09/05 08:50:30;;;;;;;21.23;12.13;;;;;;;21.43;77.87;101806.88;5073128;28;20051;-67
2023/09/05 08:53:00;;;;;;;17.90;11.18;;;;;;;21.52;78.46;101801.91;5072963;28;20060;-69
2023/09/05 08:55:26;;;;;;;17.67;11.15;;;;;;;21.60;76.14;101803.78;5067514;28;20028;-67
2023/09/05 08:57:54;;;;;;;17.08;10.70;;;;;;;21.71;75.39;101812.50;5072517;28;20032;-68
2023/09/05 09:00:21;;;;;;;17.05;11.32;;;;;;;21.81;75.48;101812.00;5072583;28;20024;-68
2023/09/05 09:02:47;;;;;;;21.13;10.65;;;;;;;21.90;74.96;101811.00;5069378;28;20020;-68
2023/09/05 09:05:13;;;;;;;16.85;10.73;;;;;;;22.01;73.90;101812.13;5072034;28;20037;-70
2023/09/05 09:07:39;;;;;;;17.38;10.30;;;;;;;22.11;74.61;101810.75;5070838;28;20024;-67
2023/09/05 09:10:21;;;;;;;14.93;10.23;;;;;;;22.24;75.15;101806.69;5058347;28;20032;-67
2023/09/05 09:12:55;;;;;;;15.20;10.20;;;;;;;22.36;75.48;101807.78;5052718;28;20147;-66
2023/09/05 09:15:25;;;;;;;16.55;10.40;;;;;;;22.52;72.63;101810.63;5052686;28;20057;-68
2023/09/05 09:17:52;;;;;;;17.40;10.30;;;;;;;22.63;71.63;101802.41;5052212;28;20487;-67
2023/09/05 09:20:19;;;;;;;15.38;10.40;;;;;;;22.69;70.84;101803.75;5051572;28;20492;-67
2023/09/05 09:22:45;;;;;;;18.20;10.93;;;;;;;22.78;71.96;101812.03;5050964;28;20048;-67
2023/09/05 09:25:20;;;;;;;17.38;10.93;;;;;;;22.85;72.35;101818.66;5051228;28;20047;-67
2023/09/05 09:27:57;;;;;;;16.48;10.52;;;;;;;22.98;71.91;101815.69;5051129;28;20095;-67
2023/09/05 09:30:23;;;;;;;17.90;10.60;;;;;;;23.04;69.29;101812.22;5051469;28;20053;-67
2023/09/05 09:32:53;;;;;;;16.10;10.27;;;;;;;23.12;68.55;101818.84;5069484;28;20129;-67
2023/09/05 09:35:19;;;;;;;16.40;10.13;;;;;;;23.20;67.47;101825.47;5071923;28;20159;-67
2023/09/05 09:37:46;;;;;;;16.48;10.30;;;;;;;23.27;68.67;101822.00;5071515;28;20489;-66
2023/09/05 09:40:12;;;;;;;19.05;10.70;;;;;;;23.35;68.13;101824.63;5072214;28;20024;-67
2023/09/05 09:42:37;;;;;;;16.88;10.48;;;;;;;23.40;66.82;101826.31;5072072;28;20077;-67
2023/09/05 09:45:07;;;;;;;16.80;10.60;;;;;;;23.47;68.08;101820.81;5059663;28;20044;-67
2023/09/05 09:47:34;;;;;;;18.38;10.90;;;;;;;23.56;67.37;101825.41;5055753;28;20299;-68
2023/09/05 09:50:02;;;;;;;16.33;10.55;;;;;;;23.64;66.67;101818.72;5053173;28;20116;-67
2023/09/05 09:52:34;;;;;;;16.30;10.00;;;;;;;23.70;66.55;101813.59;5064455;28;20129;-67
2023/09/05 09:55:06;;;;;;;17.65;10.50;;;;;;;23.80;66.19;101824.28;5065125;28;20035;-68
2023/09/05 09:57:44;;;;;;;16.42;10.40;;;;;;;23.90;68.54;101826.50;5071844;28;20036;-67
2023/09/05 10:00:17;;;;;;;15.60;10.10;;;;;;;24.00;67.72;101825.06;5066073;28;20372;-67
2023/09/05 10:02:44;;;;;;;16.77;10.40;;;;;;;24.05;67.30;101821.13;5051809;28;20396;-67
2023/09/05 10:05:11;;;;;;;15.25;10.50;;;;;;;24.18;67.85;101822.59;5051814;28;20071;-68
2023/09/05 10:07:37;;;;;;;16.08;10.30;;;;;;;24.23;64.75;101818.63;5050524;28;20025;-68
2023/09/05 10:10:04;;;;;;;17.63;10.40;;;;;;;24.34;66.22;101822.47;5052041;28;20036;-68
2023/09/05 10:12:31;;;;;;;16.92;10.40;;;;;;;24.43;64.29;101817.38;5066614;28;20028;-68
2023/09/05 10:14:58;;;;;;;16.70;10.63;;;;;;;24.53;65.01;101813.06;5071683;28;20035;-68
2023/09/05 10:17:24;;;;;;;17.05;10.40;;;;;;;24.58;65.22;101812.75;5065184;28;20112;-68
2023/09/05 10:19:50;;;;;;;16.73;10.45;;;;;;;24.61;65.38;101809.16;5070511;28;20494;-68
2023/09/05 10:22:16;;;;;;;15.65;10.40;;;;;;;24.67;65.50;101803.97;5063118;28;20040;-68
2023/09/05 10:24:43;;;;;;;18.15;10.93;;;;;;;24.72;63.61;101800.03;5053503;28;20033;-67
2023/09/05 10:27:10;;;;;;;17.48;10.30;;;;;;;24.74;64.31;101801.31;5051309;28;20492;-67
2023/09/05 10:29:46;;;;;;;15.90;10.48;;;;;;;24.81;64.55;101791.28;5051665;28;20048;-67
2023/09/05 10:32:21;;;;;;;16.02;10.13;;;;;;;24.82;63.07;101796.56;5051418;28;20029;-67
2023/09/05 10:34:47;;;;;;;17.48;10.60;;;;;;;24.86;62.99;101802.25;5051780;28;20029;-67
2023/09/05 10:37:13;;;;;;;17.97;10.90;;;;;;;24.88;62.59;101799.88;5049909;28;20043;-67
2023/09/05 10:39:49;;;;;;;16.20;10.70;;;;;;;24.96;62.60;101798.78;5051057;28;20279;-67
2023/09/05 10:42:16;;;;;;;16.42;11.13;;;;;;;25.01;62.37;101797.63;5050937;28;20040;-67
2023/09/05 10:44:42;;;;;;;18.83;11.18;;;;;;;25.05;62.34;101793.63;5052318;28;20055;-67
2023/09/05 10:47:23;;;;;;;20.38;12.07;;;;;;;25.16;64.01;101790.13;5062444;28;20476;-67
2023/09/05 10:49:48;;;;;;;15.70;10.40;;;;;;;25.21;62.48;101796.28;5055635;28;20033;-67
2023/09/05 10:52:21;;;;;;;16.73;10.45;;;;;;;25.29;61.81;101788.69;5061367;28;20052;-69
2023/09/05 10:54:47;;;;;;;18.45;10.88;;;;;;;25.30;60.73;101783.84;5062984;28;20033;-68
2023/09/05 10:57:40;;;;;;;16.77;10.52;;;;;;;25.45;64.56;101788.53;5050793;28;20033;-68
2023/09/05 11:00:38;;;;;;;18.25;10.85;;;;;;;25.57;62.71;101787.44;5050111;28;20041;-68
2023/09/05 11:03:16;;;;;;;16.42;10.52;;;;;;;25.76;62.26;101791.28;5051016;28;20029;-68